Time;durP1;ratioP1;P1;durP2;ratioP2;P2;SDS_P1;SDS_P2;PMS_P1;PMS_P2;Temp;Humidity;BMP_temperature;BMP_pressure;BME280_temperature;BME280_humidity;BME280_pressure;Samples;Min_cycle;Max_cycle;Signal;HPM_P1;HPM_P2
2022/06/19 00:01:46;;;;;;;14.57;4.05;;;18.20;81.50;;;;;;5046910;28;20060;-74
2022/06/19 00:04:12;;;;;;;13.02;3.45;;;18.20;81.60;;;;;;5035453;28;20025;-74
2022/06/19 00:06:38;;;;;;;10.98;3.45;;;18.20;81.80;;;;;;5032630;28;20036;-73
2022/06/19 00:09:05;;;;;;;12.02;3.30;;;18.10;82.20;;;;;;5036764;28;20025;-73
2022/06/19 00:11:31;;;;;;;13.32;3.95;;;18.10;82.50;;;;;;5036862;28;20045;-73
2022/06/19 00:13:57;;;;;;;11.25;3.00;;;18.00;82.80;;;;;;5033725;28;20025;-74
2022/06/19 00:16:23;;;;;;;7.78;3.08;;;18.00;82.80;;;;;;5033598;28;20041;-74
2022/06/19 00:18:49;;;;;;;11.50;2.97;;;18.00;83.10;;;;;;5033387;28;20029;-73
2022/06/19 00:21:16;;;;;;;12.15;3.67;;;17.90;83.30;;;;;;5031113;28;20140;-73
2022/06/19 00:23:42;;;;;;;13.18;3.38;;;17.80;83.60;;;;;;5035771;28;20111;-73
2022/06/19 00:26:08;;;;;;;13.85;3.55;;;17.80;83.90;;;;;;5035284;28;20512;-73
2022/06/19 00:28:34;;;;;;;16.35;3.08;;;17.80;84.40;;;;;;5035569;28;20036;-73
2022/06/19 00:31:00;;;;;;;17.13;3.97;;;17.80;84.50;;;;;;5035715;28;20036;-73
2022/06/19 00:33:26;;;;;;;13.07;3.05;;;17.70;85.00;;;;;;5040710;28;20567;-73
2022/06/19 00:35:51;;;;;;;13.95;3.55;;;17.60;85.00;;;;;;5037135;28;20029;-73
2022/06/19 00:38:18;;;;;;;9.68;2.85;;;17.50;85.40;;;;;;5035689;28;20029;-73
2022/06/19 00:40:44;;;;;;;11.82;3.40;;;17.50;85.80;;;;;;5034492;28;20029;-74
2022/06/19 00:43:09;;;;;;;13.65;3.63;;;17.40;86.30;;;;;;5037282;28;20036;-73
2022/06/19 00:45:38;;;;;;;13.60;3.10;;;17.40;86.30;;;;;;5032530;28;20052;-74
2022/06/19 00:48:17;;;;;;;15.45;3.72;;;17.40;86.70;;;;;;5040321;28;20044;-73
2022/06/19 00:50:46;;;;;;;14.70;3.35;;;17.40;86.90;;;;;;5039329;28;20028;-74
2022/06/19 00:53:37;;;;;;;12.98;3.17;;;17.40;87.30;;;;;;5042122;28;20043;-75
2022/06/19 00:56:06;;;;;;;12.10;3.00;;;17.30;87.30;;;;;;5033796;28;20025;-73
2022/06/19 00:58:36;;;;;;;15.13;3.08;;;17.30;87.70;;;;;;5036948;28;20040;-73
2022/06/19 01:01:11;;;;;;;13.45;2.90;;;17.30;88.10;;;;;;5030448;28;20036;-74
2022/06/19 01:03:45;;;;;;;14.40;2.92;;;17.30;88.40;;;;;;5035392;28;20580;-73
2022/06/19 01:06:11;;;;;;;11.82;3.03;;;17.30;88.70;;;;;;5032683;28;20037;-73
2022/06/19 01:08:37;;;;;;;17.27;3.55;;;17.20;88.70;;;;;;5030252;28;20669;-73
2022/06/19 01:11:04;;;;;;;16.75;3.25;;;17.20;88.90;;;;;;5031884;28;20036;-74
2022/06/19 01:13:31;;;;;;;12.15;3.47;;;17.10;89.40;;;;;;5019620;28;20021;-73
2022/06/19 01:15:58;;;;;;;17.40;3.30;;;17.10;89.50;;;;;;5032279;28;20116;-73
2022/06/19 01:18:25;;;;;;;11.88;3.30;;;17.10;89.90;;;;;;5048602;28;20029;-73
2022/06/19 01:20:57;;;;;;;13.35;3.47;;;17.10;89.90;;;;;;5032044;28;20033;-73
2022/06/19 01:23:47;;;;;;;16.75;3.63;;;17.10;90.00;;;;;;5035469;28;20029;-74
2022/06/19 01:26:14;;;;;;;13.23;2.97;;;17.10;90.10;;;;;;5038286;28;20034;-75
2022/06/19 01:28:46;;;;;;;12.57;2.45;;;17.10;90.20;;;;;;5027919;28;20088;-74
2022/06/19 01:31:21;;;;;;;17.77;4.10;;;17.10;90.20;;;;;;5035843;28;20037;-74
2022/06/19 01:37:14;;;;;;;15.30;4.13;;;17.00;90.40;;;;;;5033360;28;20064;-74
2022/06/19 01:39:49;;;;;;;18.88;3.67;;;17.00;90.60;;;;;;5032743;28;20045;-73
2022/06/19 01:42:16;;;;;;;15.18;3.63;;;17.00;90.70;;;;;;5028180;28;20034;-72
2022/06/19 01:44:44;;;;;;;21.73;4.15;;;17.00;90.90;;;;;;5035015;28;20029;-73
2022/06/19 01:47:10;;;;;;;14.93;3.10;;;17.00;91.00;;;;;;5031375;28;20067;-73
2022/06/19 01:49:38;;;;;;;12.75;3.08;;;16.90;91.00;;;;;;5031090;28;20532;-73
2022/06/19 01:52:05;;;;;;;19.85;3.72;;;16.90;91.20;;;;;;5033172;28;20500;-72
2022/06/19 01:54:38;;;;;;;18.10;3.65;;;16.80;91.20;;;;;;5036282;28;20146;-72
2022/06/19 01:57:07;;;;;;;13.15;2.72;;;16.80;91.50;;;;;;5027600;28;20112;-74
2022/06/19 01:59:34;;;;;;;15.88;3.72;;;16.80;91.40;;;;;;5034576;28;20826;-74
2022/06/19 02:02:04;;;;;;;24.50;4.38;;;16.90;91.70;;;;;;5026382;28;20034;-74
2022/06/19 02:04:31;;;;;;;15.40;3.53;;;16.80;91.70;;;;;;5033418;28;20033;-74
2022/06/19 02:07:01;;;;;;;17.10;4.13;;;16.80;91.90;;;;;;5034088;28;20037;-74
2022/06/19 02:09:28;;;;;;;12.90;3.53;;;16.80;91.90;;;;;;5032743;28;20088;-74
2022/06/19 02:11:55;;;;;;;17.77;3.65;;;16.80;92.00;;;;;;5031520;28;20032;-74
2022/06/19 02:14:21;;;;;;;15.70;3.90;;;16.80;92.00;;;;;;5033587;28;20029;-74
2022/06/19 02:16:48;;;;;;;18.83;3.97;;;16.80;92.10;;;;;;5033910;28;20094;-74
2022/06/19 02:19:15;;;;;;;13.65;3.10;;;16.80;92.20;;;;;;5029821;28;21194;-74
2022/06/19 02:21:51;;;;;;;14.80;3.20;;;16.80;92.30;;;;;;5033393;28;20112;-74
2022/06/19 02:24:20;;;;;;;13.70;3.60;;;16.80;92.40;;;;;;5034424;28;20092;-73
2022/06/19 02:26:48;;;;;;;17.35;3.28;;;16.70;92.60;;;;;;5034363;28;20033;-74
2022/06/19 02:29:16;;;;;;;12.05;3.10;;;16.70;92.80;;;;;;5031898;28;20061;-74
2022/06/19 02:31:45;;;;;;;13.25;3.00;;;16.70;92.80;;;;;;5031066;28;20040;-73
2022/06/19 02:34:39;;;;;;;19.35;3.55;;;16.70;92.90;;;;;;5031137;28;20528;-73
2022/06/19 02:37:21;;;;;;;17.50;3.55;;;16.80;92.90;;;;;;5032252;28;20043;-73
2022/06/19 02:40:21;;;;;;;20.23;4.10;;;16.70;93.10;;;;;;5030494;28;20133;-73
2022/06/19 02:42:49;;;;;;;17.85;4.10;;;16.70;93.10;;;;;;5033593;28;20036;-73
2022/06/19 02:45:21;;;;;;;16.60;3.28;;;16.60;93.30;;;;;;5033236;28;20937;-73
2022/06/19 02:47:48;;;;;;;16.40;3.58;;;16.50;93.50;;;;;;5030310;28;20112;-73
2022/06/19 02:50:18;;;;;;;22.35;3.83;;;16.60;93.60;;;;;;5027358;28;21798;-72
2022/06/19 02:52:45;;;;;;;22.30;3.92;;;16.50;93.70;;;;;;5036774;28;20037;-73
2022/06/19 02:55:11;;;;;;;19.15;3.88;;;16.50;93.80;;;;;;5033580;28;20065;-73
2022/06/19 02:57:37;;;;;;;18.77;3.97;;;16.50;94.00;;;;;;5027218;28;20501;-72
2022/06/19 03:00:08;;;;;;;15.35;3.45;;;16.50;94.40;;;;;;5031222;28;20038;-73
2022/06/19 03:02:34;;;;;;;11.98;2.88;;;16.50;94.30;;;;;;5034387;28;20120;-73
2022/06/19 03:05:04;;;;;;;19.10;3.72;;;16.50;94.30;;;;;;5032560;28;20172;-73
2022/06/19 03:07:30;;;;;;;18.77;3.58;;;16.50;94.50;;;;;;5032233;28;20347;-73
2022/06/19 03:09:56;;;;;;;17.00;3.28;;;16.50;94.50;;;;;;5036532;28;20033;-74
2022/06/19 03:12:23;;;;;;;18.08;3.92;;;16.50;94.60;;;;;;5048461;28;20155;-73
2022/06/19 03:14:49;;;;;;;12.13;3.33;;;16.40;94.80;;;;;;5039035;28;20052;-73
2022/06/19 03:17:17;;;;;;;15.43;2.80;;;16.40;94.90;;;;;;5032644;28;20032;-73
2022/06/19 03:19:43;;;;;;;15.10;3.60;;;16.40;95.00;;;;;;5032856;28;20052;-73
2022/06/19 03:22:10;;;;;;;14.50;3.45;;;16.50;95.10;;;;;;5034993;28;20053;-73
2022/06/19 03:24:37;;;;;;;18.48;4.10;;;16.50;95.20;;;;;;5037426;28;20029;-73
2022/06/19 03:27:03;;;;;;;16.77;3.58;;;16.50;95.10;;;;;;5036043;28;20459;-73
2022/06/19 03:29:29;;;;;;;16.33;3.47;;;16.60;95.10;;;;;;5033872;28;20057;-73
2022/06/19 03:31:55;;;;;;;21.95;4.25;;;16.60;95.20;;;;;;5031888;28;20517;-74
2022/06/19 03:34:21;;;;;;;29.02;3.58;;;16.70;95.10;;;;;;5035285;28;20124;-73
2022/06/19 03:36:47;;;;;;;20.48;4.20;;;16.70;95.30;;;;;;5037778;28;20105;-74
2022/06/19 03:39:13;;;;;;;16.20;3.50;;;16.80;95.40;;;;;;5040511;28;20060;-73
2022/06/19 03:41:38;;;;;;;16.48;3.40;;;16.70;95.40;;;;;;5033177;28;20400;-73
2022/06/19 03:44:05;;;;;;;15.23;4.10;;;16.70;95.40;;;;;;5036907;28;20033;-74
2022/06/19 03:46:32;;;;;;;17.00;3.25;;;16.70;95.50;;;;;;5039105;28;20120;-73
2022/06/19 03:48:58;;;;;;;12.68;3.00;;;16.70;95.60;;;;;;5038243;28;20087;-73
2022/06/19 03:51:24;;;;;;;17.48;3.67;;;16.60;95.60;;;;;;5031024;28;20020;-74
2022/06/19 03:53:52;;;;;;;18.95;3.95;;;16.60;95.80;;;;;;5038594;28;20036;-73
2022/06/19 03:56:23;;;;;;;16.58;3.33;;;16.60;96.00;;;;;;5035788;28;20037;-74
2022/06/19 03:58:49;;;;;;;15.73;3.80;;;16.70;96.00;;;;;;5039678;28;20058;-73
2022/06/19 04:01:17;;;;;;;17.27;3.42;;;16.60;96.10;;;;;;5030390;28;20072;-73
2022/06/19 04:03:43;;;;;;;18.52;3.72;;;16.60;96.20;;;;;;5036315;28;20033;-74
2022/06/19 04:06:10;;;;;;;17.40;4.10;;;16.70;96.30;;;;;;5037365;28;20073;-74
2022/06/19 04:08:37;;;;;;;17.42;3.13;;;16.70;96.40;;;;;;5038083;28;20029;-73
2022/06/19 04:11:04;;;;;;;13.68;3.40;;;16.60;96.30;;;;;;5029473;28;20041;-72
2022/06/19 04:13:32;;;;;;;13.02;3.67;;;16.60;96.40;;;;;;5034616;28;20029;-73
2022/06/19 04:15:58;;;;;;;22.42;4.15;;;16.60;96.40;;;;;;5036327;28;20030;-74
2022/06/19 04:18:25;;;;;;;21.08;3.20;;;16.70;96.50;;;;;;5039496;28;20047;-74
2022/06/19 04:20:52;;;;;;;13.68;3.35;;;16.70;96.60;;;;;;5029274;28;20044;-74
2022/06/19 04:23:18;;;;;;;20.38;3.53;;;16.50;96.50;;;;;;5034707;28;20025;-73
2022/06/19 04:25:44;;;;;;;19.35;3.80;;;16.50;96.70;;;;;;5035666;28;20515;-74
2022/06/19 04:28:10;;;;;;;16.52;3.75;;;16.50;96.70;;;;;;5037549;28;20028;-73
2022/06/19 04:30:37;;;;;;;15.73;3.67;;;16.60;96.70;;;;;;5034578;28;20025;-73
2022/06/19 04:33:03;;;;;;;16.88;3.55;;;16.60;96.50;;;;;;5033407;28;20082;-72
2022/06/19 04:35:29;;;;;;;15.77;3.70;;;16.70;96.40;;;;;;5019893;28;20028;-75
2022/06/19 04:37:55;;;;;;;16.90;3.35;;;16.60;96.10;;;;;;5032712;28;20041;-75
2022/06/19 04:40:21;;;;;;;15.35;4.00;;;16.60;96.20;;;;;;5036850;28;20029;-74
2022/06/19 04:42:47;;;;;;;12.27;2.88;;;16.70;96.30;;;;;;5033541;28;20083;-73
2022/06/19 04:45:13;;;;;;;14.45;3.45;;;16.60;96.30;;;;;;5034254;28;20439;-74
2022/06/19 04:47:39;;;;;;;26.80;3.80;;;16.60;96.50;;;;;;5037434;28;20073;-74
2022/06/19 04:50:06;;;;;;;20.23;3.83;;;16.50;96.60;;;;;;5038431;28;20032;-74
2022/06/19 04:52:31;;;;;;;19.17;3.55;;;16.50;96.80;;;;;;5040209;28;20501;-73
2022/06/19 04:54:57;;;;;;;17.77;4.15;;;16.50;96.70;;;;;;5030568;28;20103;-74
2022/06/19 04:57:23;;;;;;;16.40;4.22;;;16.60;96.80;;;;;;5031612;28;20100;-74
2022/06/19 04:59:48;;;;;;;13.90;3.33;;;16.60;96.80;;;;;;5033092;28;20109;-73
2022/06/19 05:02:14;;;;;;;12.38;3.53;;;16.60;96.90;;;;;;5025311;28;20033;-72
2022/06/19 05:04:40;;;;;;;14.18;3.75;;;16.60;97.00;;;;;;5035179;28;20112;-72
2022/06/19 05:07:07;;;;;;;18.10;3.20;;;16.60;97.20;;;;;;5031560;28;20496;-72
2022/06/19 05:09:32;;;;;;;16.10;3.25;;;16.60;97.30;;;;;;5036733;28;20108;-72
2022/06/19 05:11:58;;;;;;;15.90;4.50;;;16.70;97.40;;;;;;5030519;28;20158;-72
2022/06/19 05:14:24;;;;;;;16.83;3.78;;;16.70;97.50;;;;;;5037887;28;20040;-73
2022/06/19 05:16:50;;;;;;;15.20;3.35;;;16.70;97.60;;;;;;5016897;28;20124;-73
2022/06/19 05:19:16;;;;;;;13.85;3.40;;;16.80;98.10;;;;;;5030146;28;20040;-72
2022/06/19 05:21:41;;;;;;;15.35;3.38;;;16.90;98.10;;;;;;5034670;28;20029;-74
2022/06/19 05:24:08;;;;;;;15.88;3.28;;;17.00;97.70;;;;;;5032748;28;20486;-75
2022/06/19 05:26:35;;;;;;;11.85;3.20;;;17.00;97.50;;;;;;5028573;28;20120;-74
2022/06/19 05:29:03;;;;;;;18.15;3.80;;;17.10;97.60;;;;;;5035518;28;20030;-74
2022/06/19 05:31:30;;;;;;;12.98;3.47;;;17.10;97.50;;;;;;5040644;28;20036;-74
2022/06/19 05:33:56;;;;;;;17.20;3.55;;;17.10;97.50;;;;;;5036313;28;20079;-74
2022/06/19 05:36:25;;;;;;;23.08;4.32;;;17.20;97.20;;;;;;5032598;28;20104;-72
2022/06/19 05:38:51;;;;;;;15.23;4.10;;;17.20;97.10;;;;;;5030095;28;20507;-74
2022/06/19 05:41:17;;;;;;;12.07;3.03;;;17.10;97.30;;;;;;5034128;28;20041;-74
2022/06/19 05:43:42;;;;;;;10.18;3.25;;;17.10;97.50;;;;;;5033791;28;20507;-73
2022/06/19 05:46:14;;;;;;;17.10;3.60;;;17.20;97.70;;;;;;5017036;28;20079;-73
2022/06/19 05:48:40;;;;;;;13.93;3.85;;;17.20;97.30;;;;;;5033335;28;20547;-73
2022/06/19 05:51:30;;;;;;;13.20;3.05;;;17.30;97.20;;;;;;5024483;28;20394;-72
2022/06/19 05:53:58;;;;;;;17.40;3.60;;;17.30;97.20;;;;;;5031268;28;20029;-74
2022/06/19 05:56:25;;;;;;;13.98;3.45;;;17.30;97.30;;;;;;5028975;28;20034;-74
2022/06/19 05:58:51;;;;;;;15.38;3.70;;;17.40;97.10;;;;;;5032098;28;20029;-74
2022/06/19 06:01:18;;;;;;;14.05;3.85;;;17.50;96.90;;;;;;5045892;28;20043;-73
2022/06/19 06:03:44;;;;;;;14.32;3.33;;;17.40;96.80;;;;;;5034063;28;20430;-73
2022/06/19 06:06:16;;;;;;;14.70;3.70;;;17.40;96.80;;;;;;5032711;28;20135;-73
2022/06/19 06:08:42;;;;;;;18.70;3.92;;;17.40;96.80;;;;;;5038442;28;20052;-74
2022/06/19 06:11:08;;;;;;;15.88;3.92;;;17.30;97.00;;;;;;5028947;28;20040;-72
2022/06/19 06:13:34;;;;;;;19.25;4.00;;;17.30;96.90;;;;;;5036693;28;20033;-73
2022/06/19 06:16:00;;;;;;;14.65;3.08;;;17.20;97.20;;;;;;5032217;28;20033;-74
2022/06/19 06:18:26;;;;;;;13.77;3.38;;;17.20;97.40;;;;;;5035660;28;20075;-73
2022/06/19 06:21:01;;;;;;;17.95;3.90;;;17.20;97.30;;;;;;5030335;28;20128;-73
2022/06/19 06:23:31;;;;;;;18.95;3.42;;;17.30;97.60;;;;;;5036744;28;20029;-73
2022/06/19 06:26:08;;;;;;;13.60;3.28;;;17.50;97.10;;;;;;5031834;28;20033;-73
2022/06/19 06:28:36;;;;;;;18.80;4.40;;;17.40;96.90;;;;;;5036938;28;20099;-74
2022/06/19 06:31:03;;;;;;;17.88;3.83;;;17.50;96.70;;;;;;5026593;28;20362;-74
2022/06/19 06:33:29;;;;;;;12.30;3.13;;;17.40;96.70;;;;;;5031961;28;20421;-73
2022/06/19 06:35:56;;;;;;;8.23;2.35;;;17.50;96.30;;;;;;5028728;28;20610;-74
2022/06/19 06:38:23;;;;;;;11.82;3.17;;;17.50;95.90;;;;;;5034885;28;20030;-73
2022/06/19 06:40:49;;;;;;;13.23;3.38;;;17.60;95.80;;;;;;5028869;28;20036;-74
2022/06/19 06:43:15;;;;;;;8.57;2.15;;;17.70;95.40;;;;;;5033771;28;20037;-73
2022/06/19 06:45:41;;;;;;;11.57;3.55;;;17.60;95.00;;;;;;5032884;28;20033;-74
2022/06/19 06:48:07;;;;;;;13.15;2.88;;;17.60;95.00;;;;;;5034932;28;20374;-74
2022/06/19 06:50:33;;;;;;;11.95;2.75;;;17.60;94.90;;;;;;5030865;28;20033;-73
2022/06/19 06:52:59;;;;;;;11.07;2.30;;;17.60;94.60;;;;;;5034148;28;20666;-74
2022/06/19 06:55:25;;;;;;;8.63;2.85;;;17.70;94.10;;;;;;5029267;28;21188;-73
2022/06/19 06:57:51;;;;;;;8.68;2.72;;;17.70;94.20;;;;;;5029226;28;20029;-74
2022/06/19 07:00:20;;;;;;;11.60;2.60;;;17.70;94.20;;;;;;5035834;28;20043;-74
2022/06/19 07:02:46;;;;;;;11.30;2.58;;;17.80;93.40;;;;;;5036027;28;20045;-72
2022/06/19 07:05:12;;;;;;;11.65;2.38;;;17.60;93.30;;;;;;5016953;28;20043;-73
2022/06/19 07:07:38;;;;;;;8.70;2.10;;;17.70;93.30;;;;;;5039192;28;20504;-73
2022/06/19 07:10:05;;;;;;;9.32;1.80;;;17.70;93.30;;;;;;5039563;28;20117;-72
2022/06/19 07:12:32;;;;;;;5.13;2.00;;;17.80;93.20;;;;;;5016905;28;20121;-73
2022/06/19 07:14:58;;;;;;;6.28;1.80;;;17.90;92.60;;;;;;5035652;28;20033;-73
2022/06/19 07:17:23;;;;;;;7.97;2.38;;;17.90;92.70;;;;;;5039748;28;20128;-74
2022/06/19 07:19:49;;;;;;;9.50;2.63;;;17.90;92.20;;;;;;5034533;28;20104;-72
2022/06/19 07:22:16;;;;;;;9.32;2.10;;;17.80;92.20;;;;;;5036233;28;20970;-74
2022/06/19 07:24:46;;;;;;;7.75;2.35;;;17.80;92.20;;;;;;5019940;28;20408;-74
2022/06/19 07:27:13;;;;;;;5.85;1.80;;;18.00;91.60;;;;;;5026488;28;20056;-73
2022/06/19 07:29:42;;;;;;;6.90;2.00;;;18.10;90.50;;;;;;5033506;28;20107;-73
2022/06/19 07:32:08;;;;;;;7.00;2.10;;;18.10;90.80;;;;;;5031229;28;20167;-73
2022/06/19 07:34:34;;;;;;;7.60;1.85;;;18.30;91.10;;;;;;5025910;28;20524;-74
2022/06/19 07:37:00;;;;;;;8.20;2.03;;;18.40;90.50;;;;;;5033880;28;20033;-73
2022/06/19 07:39:26;;;;;;;7.72;2.03;;;18.40;89.00;;;;;;5025966;28;20808;-73
2022/06/19 07:41:51;;;;;;;5.95;1.67;;;18.40;88.70;;;;;;5040263;28;20025;-73
2022/06/19 07:44:17;;;;;;;6.32;1.63;;;18.50;89.10;;;;;;5034446;28;20064;-73
2022/06/19 07:52:12;;;;;;;4.97;1.50;;;18.90;85.90;;;;;;5031613;28;20049;-72
2022/06/19 07:54:37;;;;;;;5.82;2.08;;;19.10;85.70;;;;;;5021850;28;20324;-74
2022/06/19 07:57:03;;;;;;;6.30;1.42;;;19.20;85.50;;;;;;5031121;28;20123;-72
2022/06/19 07:59:29;;;;;;;6.20;1.80;;;19.20;84.40;;;;;;5032910;28;20028;-72
2022/06/19 08:01:54;;;;;;;5.35;1.55;;;19.30;85.20;;;;;;5033086;28;20025;-73
2022/06/19 08:04:21;;;;;;;4.25;1.38;;;19.30;83.10;;;;;;5027843;28;20072;-73
2022/06/19 08:06:47;;;;;;;4.45;1.50;;;19.30;81.30;;;;;;5030788;28;20046;-73
2022/06/19 08:09:13;;;;;;;3.75;1.27;;;19.30;80.60;;;;;;5040262;28;20033;-73
2022/06/19 08:11:38;;;;;;;7.13;1.48;;;19.50;80.50;;;;;;5034420;28;20025;-73
2022/06/19 08:14:04;;;;;;;3.45;1.48;;;19.60;79.60;;;;;;5031206;28;20017;-72
2022/06/19 08:16:30;;;;;;;4.88;1.58;;;19.60;80.10;;;;;;5032973;28;20026;-72
2022/06/19 08:18:55;;;;;;;3.63;1.55;;;19.70;80.90;;;;;;5020108;28;20029;-73
2022/06/19 08:21:21;;;;;;;8.55;1.83;;;19.80;81.40;;;;;;5033244;28;20040;-73
2022/06/19 08:23:46;;;;;;;4.35;1.30;;;19.90;79.70;;;;;;5025785;28;20096;-72
2022/06/19 08:26:12;;;;;;;5.97;1.65;;;20.00;79.10;;;;;;5038444;28;20033;-72
2022/06/19 08:31:22;;;;;;;4.22;1.30;;;20.00;79.20;;;;;;5021362;28;20056;-72
2022/06/19 08:33:48;;;;;;;5.22;1.95;;;19.90;80.00;;;;;;5022431;28;20109;-73
2022/06/19 08:36:15;;;;;;;3.67;1.42;;;19.90;81.00;;;;;;5031413;28;20060;-73
2022/06/19 08:38:48;;;;;;;4.30;1.40;;;19.80;80.90;;;;;;5030222;28;20041;-71
2022/06/19 08:41:14;;;;;;;3.90;1.30;;;19.80;79.70;;;;;;5032163;28;20025;-72
2022/06/19 08:44:10;;;;;;;1.92;1.20;;;19.80;78.80;;;;;;5029769;28;20029;-72
2022/06/19 08:47:01;;;;;;;7.03;1.80;;;19.80;79.60;;;;;;5032209;28;20106;-72
2022/06/19 08:49:53;;;;;;;6.03;1.23;;;19.80;79.30;;;;;;5035164;28;20056;-73
2022/06/19 08:53:16;;;;;;;4.07;1.55;;;19.80;79.40;;;;;;5008866;28;20029;-72
2022/06/19 08:56:01;;;;;;;6.53;1.83;;;19.90;79.10;;;;;;5005698;28;20536;-73
2022/06/19 08:59:10;;;;;;;4.22;1.25;;;20.00;79.10;;;;;;5009698;28;20034;-73
2022/06/19 09:01:56;;;;;;;4.35;1.27;;;20.00;79.10;;;;;;5024849;28;20030;-73
2022/06/19 09:07:49;;;;;;;6.22;1.50;;;20.20;76.70;;;;;;5020316;28;20047;-73
2022/06/19 09:10:48;;;;;;;10.07;1.88;;;20.20;77.80;;;;;;5026494;28;20038;-72
2022/06/19 09:13:22;;;;;;;4.45;1.55;;;20.20;76.90;;;;;;5030561;28;20022;-72
2022/06/19 09:16:11;;;;;;;4.75;1.55;;;20.20;77.80;;;;;;5026068;28;20035;-72
2022/06/19 09:18:43;;;;;;;5.00;1.50;;;20.30;77.90;;;;;;5027703;28;20029;-74
2022/06/19 09:21:10;;;;;;;5.38;1.60;;;20.40;77.20;;;;;;5039318;28;20060;-75
2022/06/19 09:24:00;;;;;;;5.45;1.27;;;20.50;77.40;;;;;;5031545;28;20057;-73
2022/06/19 09:26:39;;;;;;;4.50;1.48;;;20.70;75.70;;;;;;5032006;28;20036;-72
2022/06/19 09:29:05;;;;;;;6.63;1.42;;;20.70;75.60;;;;;;5014958;28;20031;-74
2022/06/19 09:31:42;;;;;;;4.22;1.30;;;20.90;75.80;;;;;;5027464;28;20116;-75
2022/06/19 09:34:14;;;;;;;4.63;1.48;;;21.00;75.70;;;;;;5036682;28;20056;-74
2022/06/19 09:37:06;;;;;;;5.90;1.90;;;20.90;75.00;;;;;;5039376;28;20793;-74
2022/06/19 09:39:34;;;;;;;5.43;1.73;;;20.80;75.90;;;;;;5032698;28;20134;-75
2022/06/19 09:42:30;;;;;;;4.90;2.00;;;20.70;76.90;;;;;;5037122;28;20100;-74
2022/06/19 09:45:28;;;;;;;5.68;1.67;;;20.70;76.80;;;;;;5029007;28;20108;-75
2022/06/19 09:48:39;;;;;;;3.95;1.65;;;20.60;76.90;;;;;;5013561;28;20390;-75
2022/06/19 09:51:07;;;;;;;5.00;1.73;;;20.50;77.10;;;;;;5008994;28;20029;-74
2022/06/19 09:53:51;;;;;;;5.05;1.52;;;20.40;77.60;;;;;;4997971;28;20400;-73
2022/06/19 09:56:39;;;;;;;3.47;1.55;;;20.20;78.20;;;;;;4997866;28;20035;-74
2022/06/19 09:59:35;;;;;;;6.32;2.25;;;20.10;80.30;;;;;;5000008;28;20140;-74
2022/06/19 10:02:13;;;;;;;7.15;2.05;;;19.90;84.20;;;;;;4989181;28;20496;-74
2022/06/19 10:04:47;;;;;;;7.05;2.35;;;19.90;86.60;;;;;;5004472;28;20106;-73
2022/06/19 10:07:22;;;;;;;6.95;2.22;;;19.80;87.60;;;;;;5014226;28;20473;-77
2022/06/19 10:09:54;;;;;;;7.72;2.85;;;19.80;87.70;;;;;;4997820;28;20052;-75
2022/06/19 10:12:29;;;;;;;7.22;2.58;;;19.80;88.50;;;;;;5008404;28;20038;-74
2022/06/19 10:15:00;;;;;;;7.53;2.00;;;19.70;88.90;;;;;;5009729;28;20031;-73
2022/06/19 10:17:28;;;;;;;;;;;19.60;89.20;;;;;;5011503;28;20038;-75
2022/06/19 10:20:16;;;;;;;5.75;1.90;;;19.50;89.40;;;;;;4991678;28;19999;-74
2022/06/19 10:23:03;;;;;;;8.52;2.42;;;19.40;89.60;;;;;;5005011;28;20241;-75
2022/06/19 10:25:38;;;;;;;5.15;2.13;;;19.30;89.60;;;;;;5018692;28;20033;-73
2022/06/19 10:28:15;;;;;;;7.70;2.10;;;19.20;90.00;;;;;;5001760;28;20026;-72
2022/06/19 10:31:05;;;;;;;7.43;2.33;;;19.00;90.20;;;;;;5030993;28;20033;-74
2022/06/19 10:34:15;;;;;;;7.40;2.38;;;19.00;90.80;;;;;;5028373;28;20560;-73
2022/06/19 10:37:25;;;;;;;7.07;2.70;;;19.00;91.00;;;;;;4993256;28;20045;-73
2022/06/19 10:40:27;;;;;;;6.60;2.13;;;19.00;91.30;;;;;;5027859;28;20179;-77
2022/06/19 10:43:11;;;;;;;33.78;20.98;;;18.90;91.00;;;;;;5032140;28;20097;-74
2022/06/19 10:45:51;;;;;;;99.30;68.10;;;19.00;91.10;;;;;;5037813;28;20533;-74
2022/06/19 10:48:31;;;;;;;51.80;29.23;;;18.90;91.30;;;;;;5009961;28;20030;-75
2022/06/19 10:51:13;;;;;;;13.73;5.43;;;18.80;91.60;;;;;;5036141;28;20150;-75
2022/06/19 10:54:12;;;;;;;7.25;2.45;;;18.90;92.00;;;;;;5023043;28;20037;-75
2022/06/19 10:56:54;;;;;;;5.63;2.03;;;18.90;91.80;;;;;;5024324;28;20564;-75
2022/06/19 10:59:21;;;;;;;9.00;2.30;;;18.90;91.70;;;;;;5036319;28;20036;-76
2022/06/19 11:05:03;;;;;;;6.10;2.20;;;18.90;91.90;;;;;;5029322;28;20071;-76
2022/06/19 11:07:31;;;;;;;7.68;2.20;;;18.90;92.50;;;;;;5032881;28;20062;-76
2022/06/19 11:10:05;;;;;;;8.10;2.20;;;18.90;92.30;;;;;;5038562;28;20296;-75
2022/06/19 11:12:41;;;;;;;10.82;2.95;;;19.00;92.60;;;;;;5026460;28;20029;-75
2022/06/19 11:15:27;;;;;;;8.18;2.30;;;19.00;92.60;;;;;;5033045;28;20099;-75
2022/06/19 11:18:14;;;;;;;7.38;2.30;;;19.00;92.90;;;;;;5034044;28;20035;-75
2022/06/19 11:20:53;;;;;;;12.18;2.88;;;19.10;93.10;;;;;;5035288;28;20052;-76
2022/06/19 11:23:23;;;;;;;9.02;2.45;;;19.30;93.00;;;;;;5036443;28;20033;-75
2022/06/19 11:26:13;;;;;;;11.18;2.45;;;19.30;92.90;;;;;;5027306;28;20033;-75
2022/06/19 11:28:44;;;;;;;6.55;2.03;;;19.30;93.00;;;;;;5018229;28;20824;-75
2022/06/19 11:31:32;;;;;;;7.35;2.83;;;19.30;93.10;;;;;;5036238;28;20021;-76
2022/06/19 11:34:02;;;;;;;7.53;2.42;;;19.30;93.20;;;;;;5023161;28;20061;-75
2022/06/19 11:36:45;;;;;;;8.70;2.97;;;19.30;93.30;;;;;;5030379;28;20025;-76
2022/06/19 11:39:33;;;;;;;11.05;2.72;;;19.30;93.20;;;;;;5032085;28;20045;-74
2022/06/19 11:42:17;;;;;;;9.52;2.70;;;19.20;93.20;;;;;;5021585;28;20410;-74
2022/06/19 11:44:54;;;;;;;11.68;3.03;;;19.20;93.20;;;;;;5034181;28;20086;-74
2022/06/19 11:47:36;;;;;;;7.57;2.97;;;19.20;93.50;;;;;;5028773;28;20049;-74
2022/06/19 11:50:20;;;;;;;9.80;2.63;;;19.30;93.40;;;;;;5031650;28;20024;-75
2022/06/19 11:52:50;;;;;;;8.68;3.20;;;19.30;93.70;;;;;;5031690;28;20540;-75
2022/06/19 11:55:31;;;;;;;7.40;2.63;;;19.30;93.90;;;;;;5040403;28;20528;-74
2022/06/19 11:58:14;;;;;;;9.85;3.45;;;19.30;94.00;;;;;;5027992;28;20025;-72
2022/06/19 12:00:42;;;;;;;8.55;2.22;;;19.20;94.10;;;;;;5029156;28;20036;-73
2022/06/19 12:03:29;;;;;;;12.18;3.33;;;19.20;94.70;;;;;;5036117;28;20052;-72
2022/06/19 12:05:59;;;;;;;10.88;3.20;;;19.20;94.90;;;;;;5027080;28;20053;-77
2022/06/19 12:08:33;;;;;;;12.10;3.40;;;19.10;95.20;;;;;;5051832;28;20021;-71
2022/06/19 12:11:05;;;;;;;8.20;2.67;;;18.90;95.40;;;;;;5030893;28;20280;-73
2022/06/19 12:13:37;;;;;;;10.80;2.97;;;18.80;95.60;;;;;;5031645;28;20032;-74
2022/06/19 12:16:10;;;;;;;9.85;2.97;;;18.50;96.00;;;;;;5027725;28;20038;-75
2022/06/19 12:18:36;;;;;;;10.15;2.80;;;18.50;96.70;;;;;;5029229;28;20042;-74
2022/06/19 12:21:25;;;;;;;12.82;3.58;;;18.40;97.40;;;;;;5029640;28;20029;-76
2022/06/19 12:24:01;;;;;;;11.55;3.63;;;18.30;97.80;;;;;;5033590;28;20045;-76
2022/06/19 12:26:46;;;;;;;8.98;2.78;;;18.40;98.10;;;;;;5030451;28;20032;-74
2022/06/19 12:29:26;;;;;;;12.57;3.65;;;18.30;98.50;;;;;;5014129;28;20029;-74
2022/06/19 12:31:56;;;;;;;12.18;3.15;;;18.30;99.00;;;;;;5014092;28;20398;-74
2022/06/19 12:34:37;;;;;;;10.35;3.25;;;18.30;99.70;;;;;;5032434;28;20078;-75
2022/06/19 12:37:08;;;;;;;10.65;3.08;;;18.20;99.90;;;;;;5030984;28;20119;-74
2022/06/19 12:39:33;;;;;;;7.90;3.03;;;18.20;99.90;;;;;;5031327;28;20029;-74
2022/06/19 12:42:31;;;;;;;12.70;3.45;;;18.20;99.90;;;;;;5032244;28;20041;-77
2022/06/19 12:45:19;;;;;;;16.00;3.80;;;18.10;99.90;;;;;;5018633;28;20036;-75
2022/06/19 12:48:13;;;;;;;14.95;3.78;;;18.10;99.90;;;;;;5026779;28;20159;-74
2022/06/19 12:51:12;;;;;;;9.57;3.25;;;18.10;99.90;;;;;;5022531;28;20034;-74
2022/06/19 12:54:07;;;;;;;16.52;3.90;;;18.00;99.90;;;;;;5022204;28;20063;-74
2022/06/19 12:57:00;;;;;;;12.27;3.38;;;18.00;99.90;;;;;;5017467;28;20095;-74
2022/06/19 13:00:17;;;;;;;14.23;3.47;;;18.00;99.90;;;;;;5018681;28;20116;-75
2022/06/19 13:03:15;;;;;;;12.38;3.45;;;17.90;99.90;;;;;;5022498;28;20044;-74
2022/06/19 13:05:59;;;;;;;12.10;3.25;;;17.90;99.90;;;;;;5034213;28;20041;-75
2022/06/19 13:08:54;;;;;;;12.18;3.60;;;17.90;99.90;;;;;;5026381;28;20026;-74
2022/06/19 13:11:38;;;;;;;12.75;3.85;;;17.90;99.90;;;;;;5017508;28;20033;-75
2022/06/19 13:14:19;;;;;;;10.80;2.90;;;17.90;99.90;;;;;;5022070;28;21393;-74
2022/06/19 13:17:03;;;;;;;15.85;4.18;;;18.00;99.90;;;;;;5022813;28;20047;-74
2022/06/19 13:19:54;;;;;;;9.75;3.10;;;18.00;99.90;;;;;;5020794;28;20057;-74
2022/06/19 13:22:46;;;;;;;9.07;3.73;;;17.90;99.90;;;;;;5017463;28;20037;-74
2022/06/19 13:25:23;;;;;;;15.48;3.92;;;17.90;99.90;;;;;;5023161;28;20041;-74
2022/06/19 13:28:11;;;;;;;11.75;3.30;;;17.90;99.90;;;;;;5016634;28;20856;-74